sensor_id;sensor_type;location;lat;lon;timestamp;temperature;humidity
51383;DHT22;37475;43.358;1.248;2023-02-15T00:01:51;8.10;90.20
51383;DHT22;37475;43.358;1.248;2023-02-15T00:04:20;8.10;90.30
51383;DHT22;37475;43.358;1.248;2023-02-15T00:06:47;8.10;90.20
51383;DHT22;37475;43.358;1.248;2023-02-15T00:09:13;8.10;90.30
51383;DHT22;37475;43.358;1.248;2023-02-15T00:11:40;8.10;90.30
51383;DHT22;37475;43.358;1.248;2023-02-15T00:16:38;8.20;90.10
51383;DHT22;37475;43.358;1.248;2023-02-15T00:19:05;8.10;90.00
51383;DHT22;37475;43.358;1.248;2023-02-15T00:21:33;8.10;90.10
51383;DHT22;37475;43.358;1.248;2023-02-15T00:24:01;8.10;90.50
51383;DHT22;37475;43.358;1.248;2023-02-15T00:26:28;8.10;90.40
51383;DHT22;37475;43.358;1.248;2023-02-15T00:28:55;8.10;90.30
51383;DHT22;37475;43.358;1.248;2023-02-15T00:31:23;8.10;90.30
51383;DHT22;37475;43.358;1.248;2023-02-15T00:33:50;8.00;90.30
51383;DHT22;37475;43.358;1.248;2023-02-15T00:36:16;8.00;90.50
51383;DHT22;37475;43.358;1.248;2023-02-15T00:38:42;8.00;90.60
51383;DHT22;37475;43.358;1.248;2023-02-15T00:41:08;8.00;90.60
51383;DHT22;37475;43.358;1.248;2023-02-15T00:43:35;8.00;90.60
51383;DHT22;37475;43.358;1.248;2023-02-15T00:46:02;8.00;90.80
51383;DHT22;37475;43.358;1.248;2023-02-15T00:48:29;8.00;90.70
51383;DHT22;37475;43.358;1.248;2023-02-15T00:50:57;8.00;90.60
51383;DHT22;37475;43.358;1.248;2023-02-15T00:53:25;8.00;90.80
51383;DHT22;37475;43.358;1.248;2023-02-15T00:55:51;8.00;90.60
51383;DHT22;37475;43.358;1.248;2023-02-15T00:58:17;8.10;90.70
51383;DHT22;37475;43.358;1.248;2023-02-15T01:00:45;8.10;90.70
51383;DHT22;37475;43.358;1.248;2023-02-15T01:03:14;8.00;90.50
51383;DHT22;37475;43.358;1.248;2023-02-15T01:05:40;8.10;90.50
51383;DHT22;37475;43.358;1.248;2023-02-15T01:08:06;8.00;90.60
51383;DHT22;37475;43.358;1.248;2023-02-15T01:10:34;8.00;90.50
51383;DHT22;37475;43.358;1.248;2023-02-15T01:13:01;8.00;90.50
51383;DHT22;37475;43.358;1.248;2023-02-15T01:15:27;8.00;90.50
51383;DHT22;37475;43.358;1.248;2023-02-15T01:17:53;8.00;90.40
51383;DHT22;37475;43.358;1.248;2023-02-15T01:20:20;8.00;90.40
51383;DHT22;37475;43.358;1.248;2023-02-15T01:22:47;8.00;90.20
51383;DHT22;37475;43.358;1.248;2023-02-15T01:25:18;7.90;90.10
51383;DHT22;37475;43.358;1.248;2023-02-15T01:27:45;7.90;90.20
51383;DHT22;37475;43.358;1.248;2023-02-15T01:30:13;7.90;90.30
51383;DHT22;37475;43.358;1.248;2023-02-15T01:32:39;7.90;90.20
51383;DHT22;37475;43.358;1.248;2023-02-15T01:35:06;7.90;90.00
51383;DHT22;37475;43.358;1.248;2023-02-15T01:37:33;7.90;89.90
51383;DHT22;37475;43.358;1.248;2023-02-15T01:40:00;7.70;90.00
51383;DHT22;37475;43.358;1.248;2023-02-15T01:42:29;7.70;90.10
51383;DHT22;37475;43.358;1.248;2023-02-15T01:45:02;7.70;90.10
51383;DHT22;37475;43.358;1.248;2023-02-15T01:47:38;7.60;90.20
51383;DHT22;37475;43.358;1.248;2023-02-15T01:50:11;7.70;90.10
51383;DHT22;37475;43.358;1.248;2023-02-15T01:56:15;7.60;90.10
51383;DHT22;37475;43.358;1.248;2023-02-15T01:58:44;7.60;90.00
51383;DHT22;37475;43.358;1.248;2023-02-15T02:01:11;7.50;90.50
51383;DHT22;37475;43.358;1.248;2023-02-15T02:03:57;7.50;90.80
51383;DHT22;37475;43.358;1.248;2023-02-15T02:06:27;7.50;90.80
51383;DHT22;37475;43.358;1.248;2023-02-15T02:08:54;7.50;90.90
51383;DHT22;37475;43.358;1.248;2023-02-15T02:11:21;7.40;91.00
51383;DHT22;37475;43.358;1.248;2023-02-15T02:13:48;7.40;91.00
51383;DHT22;37475;43.358;1.248;2023-02-15T02:16:27;7.40;90.80
51383;DHT22;37475;43.358;1.248;2023-02-15T02:36:52;7.10;90.90
51383;DHT22;37475;43.358;1.248;2023-02-15T02:42:21;7.00;91.40
51383;DHT22;37475;43.358;1.248;2023-02-15T02:45:04;7.00;91.30
51383;DHT22;37475;43.358;1.248;2023-02-15T02:47:40;6.80;91.20
51383;DHT22;37475;43.358;1.248;2023-02-15T02:50:15;6.90;91.40
51383;DHT22;37475;43.358;1.248;2023-02-15T02:52:46;6.80;91.50
51383;DHT22;37475;43.358;1.248;2023-02-15T03:00:31;6.80;91.90
51383;DHT22;37475;43.358;1.248;2023-02-15T03:03:05;6.80;91.90
51383;DHT22;37475;43.358;1.248;2023-02-15T03:05:35;6.80;91.90
51383;DHT22;37475;43.358;1.248;2023-02-15T03:08:04;6.80;92.30
51383;DHT22;37475;43.358;1.248;2023-02-15T03:10:32;6.80;92.30
51383;DHT22;37475;43.358;1.248;2023-02-15T03:13:00;6.80;92.20
51383;DHT22;37475;43.358;1.248;2023-02-15T03:15:33;6.80;92.20
51383;DHT22;37475;43.358;1.248;2023-02-15T03:18:24;6.80;92.30
51383;DHT22;37475;43.358;1.248;2023-02-15T03:20:55;6.80;92.30
51383;DHT22;37475;43.358;1.248;2023-02-15T03:23:27;6.70;92.20
51383;DHT22;37475;43.358;1.248;2023-02-15T03:26:00;6.80;92.60
51383;DHT22;37475;43.358;1.248;2023-02-15T03:28:42;6.80;92.40
51383;DHT22;37475;43.358;1.248;2023-02-15T03:31:11;6.70;92.40
51383;DHT22;37475;43.358;1.248;2023-02-15T03:33:45;6.60;92.40
51383;DHT22;37475;43.358;1.248;2023-02-15T03:36:19;6.70;92.70
51383;DHT22;37475;43.358;1.248;2023-02-15T03:39:22;6.80;92.60
51383;DHT22;37475;43.358;1.248;2023-02-15T03:42:09;6.70;92.40
51383;DHT22;37475;43.358;1.248;2023-02-15T03:44:54;6.60;92.30
51383;DHT22;37475;43.358;1.248;2023-02-15T03:47:34;6.50;92.40
51383;DHT22;37475;43.358;1.248;2023-02-15T03:50:06;6.60;92.50
51383;DHT22;37475;43.358;1.248;2023-02-15T03:52:58;6.40;92.60
51383;DHT22;37475;43.358;1.248;2023-02-15T03:55:25;6.40;92.80
51383;DHT22;37475;43.358;1.248;2023-02-15T03:57:52;6.40;92.90
51383;DHT22;37475;43.358;1.248;2023-02-15T04:00:38;6.40;92.90
51383;DHT22;37475;43.358;1.248;2023-02-15T04:03:40;6.40;92.60
51383;DHT22;37475;43.358;1.248;2023-02-15T04:06:08;6.40;92.60
51383;DHT22;37475;43.358;1.248;2023-02-15T04:08:34;6.30;92.40
51383;DHT22;37475;43.358;1.248;2023-02-15T04:11:18;6.30;92.30
51383;DHT22;37475;43.358;1.248;2023-02-15T04:13:44;6.20;92.30
51383;DHT22;37475;43.358;1.248;2023-02-15T04:16:10;6.20;92.50
51383;DHT22;37475;43.358;1.248;2023-02-15T04:18:40;6.20;92.60
51383;DHT22;37475;43.358;1.248;2023-02-15T04:21:29;6.20;92.70
51383;DHT22;37475;43.358;1.248;2023-02-15T04:24:15;6.10;92.90
51383;DHT22;37475;43.358;1.248;2023-02-15T04:27:00;6.10;93.10
51383;DHT22;37475;43.358;1.248;2023-02-15T04:29:27;6.10;93.10
51383;DHT22;37475;43.358;1.248;2023-02-15T04:31:54;6.10;93.00
51383;DHT22;37475;43.358;1.248;2023-02-15T04:34:22;6.10;93.00
51383;DHT22;37475;43.358;1.248;2023-02-15T04:36:48;6.00;92.80
51383;DHT22;37475;43.358;1.248;2023-02-15T04:39:16;6.00;92.70
51383;DHT22;37475;43.358;1.248;2023-02-15T04:41:43;6.00;92.60
51383;DHT22;37475;43.358;1.248;2023-02-15T04:44:09;6.00;92.50
51383;DHT22;37475;43.358;1.248;2023-02-15T04:46:35;5.90;92.60
51383;DHT22;37475;43.358;1.248;2023-02-15T04:49:01;5.90;92.80
51383;DHT22;37475;43.358;1.248;2023-02-15T04:51:28;5.90;93.00
51383;DHT22;37475;43.358;1.248;2023-02-15T04:53:54;5.80;92.90
51383;DHT22;37475;43.358;1.248;2023-02-15T04:56:20;5.80;93.20
51383;DHT22;37475;43.358;1.248;2023-02-15T04:58:46;5.80;93.50
51383;DHT22;37475;43.358;1.248;2023-02-15T05:01:12;5.70;93.60
51383;DHT22;37475;43.358;1.248;2023-02-15T05:03:38;5.70;93.70
51383;DHT22;37475;43.358;1.248;2023-02-15T05:06:04;5.80;93.80
51383;DHT22;37475;43.358;1.248;2023-02-15T05:08:30;5.70;93.80
51383;DHT22;37475;43.358;1.248;2023-02-15T05:10:57;5.70;93.70
51383;DHT22;37475;43.358;1.248;2023-02-15T05:13:23;5.60;93.70
51383;DHT22;37475;43.358;1.248;2023-02-15T05:15:50;5.60;93.60
51383;DHT22;37475;43.358;1.248;2023-02-15T05:18:17;5.60;93.60
51383;DHT22;37475;43.358;1.248;2023-02-15T05:20:44;5.60;93.60
51383;DHT22;37475;43.358;1.248;2023-02-15T05:23:10;5.60;93.50
51383;DHT22;37475;43.358;1.248;2023-02-15T05:25:36;5.60;93.40
51383;DHT22;37475;43.358;1.248;2023-02-15T05:28:21;5.50;93.40
51383;DHT22;37475;43.358;1.248;2023-02-15T05:31:10;5.50;93.70
51383;DHT22;37475;43.358;1.248;2023-02-15T05:33:38;5.50;93.90
51383;DHT22;37475;43.358;1.248;2023-02-15T05:36:05;5.60;94.10
51383;DHT22;37475;43.358;1.248;2023-02-15T05:38:32;5.60;94.20
51383;DHT22;37475;43.358;1.248;2023-02-15T05:40:58;5.60;94.30
51383;DHT22;37475;43.358;1.248;2023-02-15T05:43:25;5.60;94.30
51383;DHT22;37475;43.358;1.248;2023-02-15T05:45:54;5.70;94.30
51383;DHT22;37475;43.358;1.248;2023-02-15T05:48:22;5.60;94.20
51383;DHT22;37475;43.358;1.248;2023-02-15T05:51:12;5.60;94.20
51383;DHT22;37475;43.358;1.248;2023-02-15T05:53:40;5.70;94.20
51383;DHT22;37475;43.358;1.248;2023-02-15T05:56:11;5.60;94.10
51383;DHT22;37475;43.358;1.248;2023-02-15T05:58:39;5.50;93.90
51383;DHT22;37475;43.358;1.248;2023-02-15T06:01:13;5.50;93.90
51383;DHT22;37475;43.358;1.248;2023-02-15T06:03:41;5.40;93.90
51383;DHT22;37475;43.358;1.248;2023-02-15T06:06:07;5.40;94.00
51383;DHT22;37475;43.358;1.248;2023-02-15T06:08:35;5.40;94.00
51383;DHT22;37475;43.358;1.248;2023-02-15T06:11:01;5.30;94.00
51383;DHT22;37475;43.358;1.248;2023-02-15T06:13:27;5.40;94.50
51383;DHT22;37475;43.358;1.248;2023-02-15T06:15:53;5.40;94.40
51383;DHT22;37475;43.358;1.248;2023-02-15T06:18:19;5.40;94.40
51383;DHT22;37475;43.358;1.248;2023-02-15T06:20:46;5.40;94.20
51383;DHT22;37475;43.358;1.248;2023-02-15T06:23:12;5.40;94.20
51383;DHT22;37475;43.358;1.248;2023-02-15T06:25:38;5.30;94.10
51383;DHT22;37475;43.358;1.248;2023-02-15T06:28:04;5.30;94.10
51383;DHT22;37475;43.358;1.248;2023-02-15T06:30:30;5.30;94.00
51383;DHT22;37475;43.358;1.248;2023-02-15T06:32:56;5.30;94.00
51383;DHT22;37475;43.358;1.248;2023-02-15T06:35:22;5.30;94.10
51383;DHT22;37475;43.358;1.248;2023-02-15T06:37:48;5.30;94.30
51383;DHT22;37475;43.358;1.248;2023-02-15T06:40:14;5.60;94.60
51383;DHT22;37475;43.358;1.248;2023-02-15T06:42:41;5.40;94.30
51383;DHT22;37475;43.358;1.248;2023-02-15T06:45:08;5.40;94.20
51383;DHT22;37475;43.358;1.248;2023-02-15T06:47:34;5.40;94.40
51383;DHT22;37475;43.358;1.248;2023-02-15T06:50:00;5.40;94.30
51383;DHT22;37475;43.358;1.248;2023-02-15T06:52:26;5.40;94.30
51383;DHT22;37475;43.358;1.248;2023-02-15T06:54:53;5.40;94.10
51383;DHT22;37475;43.358;1.248;2023-02-15T06:57:19;5.40;94.30
51383;DHT22;37475;43.358;1.248;2023-02-15T06:59:45;5.50;94.40
51383;DHT22;37475;43.358;1.248;2023-02-15T07:02:12;5.50;94.20
51383;DHT22;37475;43.358;1.248;2023-02-15T07:04:38;5.40;94.10
51383;DHT22;37475;43.358;1.248;2023-02-15T07:07:07;5.50;94.00
51383;DHT22;37475;43.358;1.248;2023-02-15T07:09:34;5.60;94.10
51383;DHT22;37475;43.358;1.248;2023-02-15T07:12:00;5.40;93.90
51383;DHT22;37475;43.358;1.248;2023-02-15T07:14:44;5.50;93.90
51383;DHT22;37475;43.358;1.248;2023-02-15T07:17:10;5.50;93.80
51383;DHT22;37475;43.358;1.248;2023-02-15T07:19:36;5.50;93.70
51383;DHT22;37475;43.358;1.248;2023-02-15T07:22:02;5.50;94.00
51383;DHT22;37475;43.358;1.248;2023-02-15T07:24:30;5.60;93.90
51383;DHT22;37475;43.358;1.248;2023-02-15T07:26:56;5.60;93.80
51383;DHT22;37475;43.358;1.248;2023-02-15T07:29:23;5.60;93.70
51383;DHT22;37475;43.358;1.248;2023-02-15T07:31:49;5.60;93.60
51383;DHT22;37475;43.358;1.248;2023-02-15T07:34:15;5.70;93.50
51383;DHT22;37475;43.358;1.248;2023-02-15T07:36:41;5.60;93.30
51383;DHT22;37475;43.358;1.248;2023-02-15T07:39:10;5.60;93.20
51383;DHT22;37475;43.358;1.248;2023-02-15T07:41:36;5.60;93.10
51383;DHT22;37475;43.358;1.248;2023-02-15T07:44:02;5.70;93.20
51383;DHT22;37475;43.358;1.248;2023-02-15T07:46:28;5.70;93.30
51383;DHT22;37475;43.358;1.248;2023-02-15T07:48:54;5.70;93.30
51383;DHT22;37475;43.358;1.248;2023-02-15T07:51:19;5.80;93.20
51383;DHT22;37475;43.358;1.248;2023-02-15T07:53:45;5.80;93.30
51383;DHT22;37475;43.358;1.248;2023-02-15T07:56:14;5.90;93.30
51383;DHT22;37475;43.358;1.248;2023-02-15T07:58:40;5.90;93.20
51383;DHT22;37475;43.358;1.248;2023-02-15T08:01:25;6.10;93.10
51383;DHT22;37475;43.358;1.248;2023-02-15T08:03:56;6.20;93.00
51383;DHT22;37475;43.358;1.248;2023-02-15T08:06:25;6.30;92.80
51383;DHT22;37475;43.358;1.248;2023-02-15T08:08:53;6.40;92.60
51383;DHT22;37475;43.358;1.248;2023-02-15T08:11:22;6.50;92.30
51383;DHT22;37475;43.358;1.248;2023-02-15T08:13:55;6.60;92.30
51383;DHT22;37475;43.358;1.248;2023-02-15T08:16:22;6.70;92.10
51383;DHT22;37475;43.358;1.248;2023-02-15T08:18:49;6.80;91.90
51383;DHT22;37475;43.358;1.248;2023-02-15T08:21:15;6.90;91.70
51383;DHT22;37475;43.358;1.248;2023-02-15T08:23:41;7.00;91.50
51383;DHT22;37475;43.358;1.248;2023-02-15T08:26:07;7.20;91.10
51383;DHT22;37475;43.358;1.248;2023-02-15T08:28:33;7.40;90.80
51383;DHT22;37475;43.358;1.248;2023-02-15T08:33:36;7.60;90.30
51383;DHT22;37475;43.358;1.248;2023-02-15T08:38:31;8.00;89.60
51383;DHT22;37475;43.358;1.248;2023-02-15T08:40:58;8.10;89.40
51383;DHT22;37475;43.358;1.248;2023-02-15T08:43:33;8.20;89.10
51383;DHT22;37475;43.358;1.248;2023-02-15T08:45:59;8.20;88.90
51383;DHT22;37475;43.358;1.248;2023-02-15T08:48:25;8.30;88.40
51383;DHT22;37475;43.358;1.248;2023-02-15T08:50:51;8.40;88.40
51383;DHT22;37475;43.358;1.248;2023-02-15T08:53:17;8.50;88.10
51383;DHT22;37475;43.358;1.248;2023-02-15T08:55:47;8.40;87.80
51383;DHT22;37475;43.358;1.248;2023-02-15T08:58:20;8.40;87.80
51383;DHT22;37475;43.358;1.248;2023-02-15T09:00:46;8.50;87.90
51383;DHT22;37475;43.358;1.248;2023-02-15T09:03:11;8.60;87.80
51383;DHT22;37475;43.358;1.248;2023-02-15T09:05:37;8.60;87.40
51383;DHT22;37475;43.358;1.248;2023-02-15T09:08:04;8.80;87.40
51383;DHT22;37475;43.358;1.248;2023-02-15T09:10:29;8.80;87.20
51383;DHT22;37475;43.358;1.248;2023-02-15T09:12:55;8.90;86.60
51383;DHT22;37475;43.358;1.248;2023-02-15T09:15:21;9.00;86.20
51383;DHT22;37475;43.358;1.248;2023-02-15T09:17:47;9.10;86.00
51383;DHT22;37475;43.358;1.248;2023-02-15T09:20:13;9.20;85.90
51383;DHT22;37475;43.358;1.248;2023-02-15T09:22:39;9.40;85.30
51383;DHT22;37475;43.358;1.248;2023-02-15T09:25:05;9.60;85.10
51383;DHT22;37475;43.358;1.248;2023-02-15T09:27:31;9.80;84.60
51383;DHT22;37475;43.358;1.248;2023-02-15T09:29:56;10.00;84.20
51383;DHT22;37475;43.358;1.248;2023-02-15T09:32:22;10.10;83.30
51383;DHT22;37475;43.358;1.248;2023-02-15T09:34:48;10.20;83.40
51383;DHT22;37475;43.358;1.248;2023-02-15T09:37:14;10.40;82.90
51383;DHT22;37475;43.358;1.248;2023-02-15T09:39:42;10.50;81.40
51383;DHT22;37475;43.358;1.248;2023-02-15T09:42:25;10.60;81.30
51383;DHT22;37475;43.358;1.248;2023-02-15T09:51:21;10.40;80.40
51383;DHT22;37475;43.358;1.248;2023-02-15T09:56:53;10.60;79.90
51383;DHT22;37475;43.358;1.248;2023-02-15T10:02:24;10.60;80.10
51383;DHT22;37475;43.358;1.248;2023-02-15T10:08:35;11.10;78.30
51383;DHT22;37475;43.358;1.248;2023-02-15T10:14:14;11.30;77.10
51383;DHT22;37475;43.358;1.248;2023-02-15T10:27:47;11.50;76.20
51383;DHT22;37475;43.358;1.248;2023-02-15T10:30:20;11.60;75.60
51383;DHT22;37475;43.358;1.248;2023-02-15T10:33:02;11.80;75.90
51383;DHT22;37475;43.358;1.248;2023-02-15T10:35:57;12.00;75.10
51383;DHT22;37475;43.358;1.248;2023-02-15T10:38:41;12.30;75.20
51383;DHT22;37475;43.358;1.248;2023-02-15T10:47:12;12.90;71.90
51383;DHT22;37475;43.358;1.248;2023-02-15T10:52:54;13.10;69.60
51383;DHT22;37475;43.358;1.248;2023-02-15T11:04:50;13.60;69.50
51383;DHT22;37475;43.358;1.248;2023-02-15T11:07:23;14.10;67.10
51383;DHT22;37475;43.358;1.248;2023-02-15T11:09:59;13.90;68.00
51383;DHT22;37475;43.358;1.248;2023-02-15T11:12:38;14.10;67.30
51383;DHT22;37475;43.358;1.248;2023-02-15T11:15:23;14.10;66.00
51383;DHT22;37475;43.358;1.248;2023-02-15T11:18:02;14.50;66.60
51383;DHT22;37475;43.358;1.248;2023-02-15T11:20:52;14.70;64.40
51383;DHT22;37475;43.358;1.248;2023-02-15T11:23:21;14.60;65.60
51383;DHT22;37475;43.358;1.248;2023-02-15T11:28:54;15.50;60.40
51383;DHT22;37475;43.358;1.248;2023-02-15T11:31:26;15.80;60.10
51383;DHT22;37475;43.358;1.248;2023-02-15T11:34:20;15.40;60.60
51383;DHT22;37475;43.358;1.248;2023-02-15T11:36:49;15.60;60.00
51383;DHT22;37475;43.358;1.248;2023-02-15T11:39:17;15.70;59.90
51383;DHT22;37475;43.358;1.248;2023-02-15T11:41:53;15.70;58.40
51383;DHT22;37475;43.358;1.248;2023-02-15T11:44:32;16.10;59.10
51383;DHT22;37475;43.358;1.248;2023-02-15T11:47:01;16.00;57.20
51383;DHT22;37475;43.358;1.248;2023-02-15T11:49:34;16.40;56.70
51383;DHT22;37475;43.358;1.248;2023-02-15T11:52:03;16.30;55.50
51383;DHT22;37475;43.358;1.248;2023-02-15T11:54:33;16.90;56.40
51383;DHT22;37475;43.358;1.248;2023-02-15T11:57:15;17.20;55.00
51383;DHT22;37475;43.358;1.248;2023-02-15T12:00:03;18.00;53.10
51383;DHT22;37475;43.358;1.248;2023-02-15T12:02:32;17.70;53.00
51383;DHT22;37475;43.358;1.248;2023-02-15T12:05:10;17.80;52.80
51383;DHT22;37475;43.358;1.248;2023-02-15T12:10:32;18.60;51.00
51383;DHT22;37475;43.358;1.248;2023-02-15T12:13:15;18.20;50.80
51383;DHT22;37475;43.358;1.248;2023-02-15T12:15:48;18.20;49.90
51383;DHT22;37475;43.358;1.248;2023-02-15T12:23:33;18.30;49.00
51383;DHT22;37475;43.358;1.248;2023-02-15T12:26:00;17.80;51.40
51383;DHT22;37475;43.358;1.248;2023-02-15T12:28:40;18.20;49.80
51383;DHT22;37475;43.358;1.248;2023-02-15T12:31:23;18.80;50.70
51383;DHT22;37475;43.358;1.248;2023-02-15T12:33:55;19.10;50.30
51383;DHT22;37475;43.358;1.248;2023-02-15T12:36:25;19.00;49.40
51383;DHT22;37475;43.358;1.248;2023-02-15T12:39:16;19.10;48.40
51383;DHT22;37475;43.358;1.248;2023-02-15T12:42:14;19.10;47.30
51383;DHT22;37475;43.358;1.248;2023-02-15T12:45:00;18.10;47.80
51383;DHT22;37475;43.358;1.248;2023-02-15T12:47:29;18.60;48.10
51383;DHT22;37475;43.358;1.248;2023-02-15T12:52:46;19.20;46.60
51383;DHT22;37475;43.358;1.248;2023-02-15T12:55:23;19.30;46.60
51383;DHT22;37475;43.358;1.248;2023-02-15T12:58:15;18.80;47.40
51383;DHT22;37475;43.358;1.248;2023-02-15T13:00:43;18.80;46.40
51383;DHT22;37475;43.358;1.248;2023-02-15T13:03:17;18.60;49.10
51383;DHT22;37475;43.358;1.248;2023-02-15T13:05:46;18.60;47.20
51383;DHT22;37475;43.358;1.248;2023-02-15T13:08:19;19.30;47.40
51383;DHT22;37475;43.358;1.248;2023-02-15T13:11:02;18.90;45.40
51383;DHT22;37475;43.358;1.248;2023-02-15T13:13:31;19.10;46.10
51383;DHT22;37475;43.358;1.248;2023-02-15T13:16:04;19.50;44.40
51383;DHT22;37475;43.358;1.248;2023-02-15T13:18:42;19.90;42.50
51383;DHT22;37475;43.358;1.248;2023-02-15T13:21:12;20.70;42.30
51383;DHT22;37475;43.358;1.248;2023-02-15T13:23:47;20.00;44.50
51383;DHT22;37475;43.358;1.248;2023-02-15T13:26:21;20.50;42.50
51383;DHT22;37475;43.358;1.248;2023-02-15T13:28:57;20.30;43.70
51383;DHT22;37475;43.358;1.248;2023-02-15T13:31:28;20.20;42.50
51383;DHT22;37475;43.358;1.248;2023-02-15T13:34:10;20.10;44.50
51383;DHT22;37475;43.358;1.248;2023-02-15T13:40:01;20.40;43.40
51383;DHT22;37475;43.358;1.248;2023-02-15T13:49:31;20.50;40.80
51383;DHT22;37475;43.358;1.248;2023-02-15T13:52:21;20.20;41.90
51383;DHT22;37475;43.358;1.248;2023-02-15T13:57:45;20.30;41.90
51383;DHT22;37475;43.358;1.248;2023-02-15T14:00:40;19.90;42.10
51383;DHT22;37475;43.358;1.248;2023-02-15T14:12:10;21.10;39.00
51383;DHT22;37475;43.358;1.248;2023-02-15T14:18:04;21.00;39.20
51383;DHT22;37475;43.358;1.248;2023-02-15T14:26:42;20.90;36.60
51383;DHT22;37475;43.358;1.248;2023-02-15T14:29:48;21.20;37.10
51383;DHT22;37475;43.358;1.248;2023-02-15T14:32:36;20.80;36.70
51383;DHT22;37475;43.358;1.248;2023-02-15T14:35:15;21.20;35.20
51383;DHT22;37475;43.358;1.248;2023-02-15T14:38:24;22.30;34.30
51383;DHT22;37475;43.358;1.248;2023-02-15T14:49:36;21.70;35.40
51383;DHT22;37475;43.358;1.248;2023-02-15T14:52:08;21.20;34.80
51383;DHT22;37475;43.358;1.248;2023-02-15T15:02:30;21.00;35.50
51383;DHT22;37475;43.358;1.248;2023-02-15T15:05:26;21.20;35.80
51383;DHT22;37475;43.358;1.248;2023-02-15T15:08:00;20.50;36.80
51383;DHT22;37475;43.358;1.248;2023-02-15T15:10:37;20.90;36.10
51383;DHT22;37475;43.358;1.248;2023-02-15T15:15:55;19.40;39.40
51383;DHT22;37475;43.358;1.248;2023-02-15T15:18:44;19.60;39.10
51383;DHT22;37475;43.358;1.248;2023-02-15T15:32:49;20.20;43.60
51383;DHT22;37475;43.358;1.248;2023-02-15T15:35:34;19.90;43.90
51383;DHT22;37475;43.358;1.248;2023-02-15T15:41:18;20.40;42.40
51383;DHT22;37475;43.358;1.248;2023-02-15T15:49:20;19.10;46.70
51383;DHT22;37475;43.358;1.248;2023-02-15T15:51:48;19.50;46.10
51383;DHT22;37475;43.358;1.248;2023-02-15T15:54:24;19.10;46.90
51383;DHT22;37475;43.358;1.248;2023-02-15T15:57:04;19.80;44.40
51383;DHT22;37475;43.358;1.248;2023-02-15T15:59:33;19.10;45.70
51383;DHT22;37475;43.358;1.248;2023-02-15T16:02:07;18.60;47.50
51383;DHT22;37475;43.358;1.248;2023-02-15T16:04:38;18.10;49.20
51383;DHT22;37475;43.358;1.248;2023-02-15T16:10:02;18.40;50.30
51383;DHT22;37475;43.358;1.248;2023-02-15T16:12:37;17.60;51.40
51383;DHT22;37475;43.358;1.248;2023-02-15T16:18:25;17.20;53.50
51383;DHT22;37475;43.358;1.248;2023-02-15T16:20:55;17.80;52.30
51383;DHT22;37475;43.358;1.248;2023-02-15T16:28:51;17.40;51.90
51383;DHT22;37475;43.358;1.248;2023-02-15T16:31:18;17.30;52.40
51383;DHT22;37475;43.358;1.248;2023-02-15T16:33:45;17.00;54.00
51383;DHT22;37475;43.358;1.248;2023-02-15T16:36:20;16.90;54.10
51383;DHT22;37475;43.358;1.248;2023-02-15T16:41:27;16.80;54.60
51383;DHT22;37475;43.358;1.248;2023-02-15T16:43:57;17.00;53.90
51383;DHT22;37475;43.358;1.248;2023-02-15T16:46:49;16.20;55.70
51383;DHT22;37475;43.358;1.248;2023-02-15T16:49:25;16.30;55.60
51383;DHT22;37475;43.358;1.248;2023-02-15T16:52:01;16.10;56.20
51383;DHT22;37475;43.358;1.248;2023-02-15T16:54:31;15.90;57.40
51383;DHT22;37475;43.358;1.248;2023-02-15T16:56:58;15.80;57.40
51383;DHT22;37475;43.358;1.248;2023-02-15T16:59:38;15.30;58.70
51383;DHT22;37475;43.358;1.248;2023-02-15T17:02:11;15.10;59.60
51383;DHT22;37475;43.358;1.248;2023-02-15T17:05:32;14.80;61.00
51383;DHT22;37475;43.358;1.248;2023-02-15T17:13:34;14.30;62.50
51383;DHT22;37475;43.358;1.248;2023-02-15T17:18:28;13.60;64.90
51383;DHT22;37475;43.358;1.248;2023-02-15T17:21:20;13.40;65.60
51383;DHT22;37475;43.358;1.248;2023-02-15T17:23:48;13.40;65.10
51383;DHT22;37475;43.358;1.248;2023-02-15T17:32:02;12.90;66.90
51383;DHT22;37475;43.358;1.248;2023-02-15T17:34:47;12.90;65.70
51383;DHT22;37475;43.358;1.248;2023-02-15T17:39:52;12.10;69.50
51383;DHT22;37475;43.358;1.248;2023-02-15T17:42:18;12.00;69.70
51383;DHT22;37475;43.358;1.248;2023-02-15T17:44:44;11.90;70.60
51383;DHT22;37475;43.358;1.248;2023-02-15T17:47:19;11.80;70.80
51383;DHT22;37475;43.358;1.248;2023-02-15T17:49:47;11.70;70.90
51383;DHT22;37475;43.358;1.248;2023-02-15T17:52:16;11.60;71.30
51383;DHT22;37475;43.358;1.248;2023-02-15T17:54:43;11.50;71.20
51383;DHT22;37475;43.358;1.248;2023-02-15T17:57:29;11.60;71.30
51383;DHT22;37475;43.358;1.248;2023-02-15T17:59:56;11.40;71.60
51383;DHT22;37475;43.358;1.248;2023-02-15T18:02:41;11.40;72.00
51383;DHT22;37475;43.358;1.248;2023-02-15T18:05:25;11.10;73.50
51383;DHT22;37475;43.358;1.248;2023-02-15T18:08:14;11.00;74.20
51383;DHT22;37475;43.358;1.248;2023-02-15T18:11:01;10.90;74.50
51383;DHT22;37475;43.358;1.248;2023-02-15T18:13:45;10.70;75.70
51383;DHT22;37475;43.358;1.248;2023-02-15T18:16:18;10.60;75.70
51383;DHT22;37475;43.358;1.248;2023-02-15T18:18:47;10.60;75.40
51383;DHT22;37475;43.358;1.248;2023-02-15T18:21:13;10.60;76.10
51383;DHT22;37475;43.358;1.248;2023-02-15T18:23:39;10.50;76.20
51383;DHT22;37475;43.358;1.248;2023-02-15T18:26:11;10.40;76.50
51383;DHT22;37475;43.358;1.248;2023-02-15T18:28:44;10.40;77.10
51383;DHT22;37475;43.358;1.248;2023-02-15T18:31:10;10.40;76.90
51383;DHT22;37475;43.358;1.248;2023-02-15T18:33:58;10.30;77.60
51383;DHT22;37475;43.358;1.248;2023-02-15T18:36:41;10.20;78.50
51383;DHT22;37475;43.358;1.248;2023-02-15T18:39:29;10.10;78.90
51383;DHT22;37475;43.358;1.248;2023-02-15T18:42:03;10.10;79.20
51383;DHT22;37475;43.358;1.248;2023-02-15T18:44:29;10.10;79.00
51383;DHT22;37475;43.358;1.248;2023-02-15T18:46:55;10.00;79.50
51383;DHT22;37475;43.358;1.248;2023-02-15T18:49:20;10.10;80.00
51383;DHT22;37475;43.358;1.248;2023-02-15T18:51:46;10.00;79.80
51383;DHT22;37475;43.358;1.248;2023-02-15T18:54:18;9.90;80.10
51383;DHT22;37475;43.358;1.248;2023-02-15T18:56:49;9.90;80.10
51383;DHT22;37475;43.358;1.248;2023-02-15T18:59:18;9.80;80.40
51383;DHT22;37475;43.358;1.248;2023-02-15T19:01:44;9.70;81.00
51383;DHT22;37475;43.358;1.248;2023-02-15T19:04:10;9.60;81.40
51383;DHT22;37475;43.358;1.248;2023-02-15T19:06:44;9.60;81.90
51383;DHT22;37475;43.358;1.248;2023-02-15T19:09:20;9.50;81.50
51383;DHT22;37475;43.358;1.248;2023-02-15T19:11:52;9.60;81.50
51383;DHT22;37475;43.358;1.248;2023-02-15T19:16:51;9.50;82.50
51383;DHT22;37475;43.358;1.248;2023-02-15T19:19:16;9.40;82.80
51383;DHT22;37475;43.358;1.248;2023-02-15T19:21:42;9.40;83.00
51383;DHT22;37475;43.358;1.248;2023-02-15T19:24:17;9.30;83.10
51383;DHT22;37475;43.358;1.248;2023-02-15T19:26:48;9.30;83.10
51383;DHT22;37475;43.358;1.248;2023-02-15T19:29:23;9.30;83.40
51383;DHT22;37475;43.358;1.248;2023-02-15T19:31:50;9.20;83.50
51383;DHT22;37475;43.358;1.248;2023-02-15T19:34:17;9.20;83.50